QTR338 UUEE-OTHH
Flight info
| Callsign | QTR338 |
|---|---|
| Flight time | N/A |
| Altitude | 37000 |
| Route | EMGAS3H EMGAS T828 NIBIM M54 GUSLI/N0498F370 M54 LAGAS/N0497F390 M54 ADILA N82 ADANO N77 MAGRI R654 PEKAM P574 SYZ/N0491F400 R659 VEDED |
| Aircraft | B78X/H-SDE1E2E3FGHIJ2J3J4J5M1RWXY/LB1D1 |
Departure
| Time | 2026-05-06 12:33 |
|---|---|
| Airport | Sheremetyevo International Airport (UUEE) |
Arrival
| Time | N/A |
|---|---|
| Airport | Hamad International Airport (OTHH) |
| Time | Latitude | Longitude | Altitude | Speed | Heading |
|---|---|---|---|---|---|
| 2026-05-06 11:39 | 55.96779 | 37.41605 | 645 ft | 0 kts | 165° |
| 2026-05-06 12:19 | 55.96794 | 37.41598 | 645 ft | 4 kts | 165° |
| 2026-05-06 12:19 | 55.96820 | 37.41586 | 647 ft | 4 kts | 165° |
| 2026-05-06 12:19 | 55.96844 | 37.41574 | 648 ft | 4 kts | 162° |
| 2026-05-06 12:19 | 55.96860 | 37.41557 | 648 ft | 4 kts | 85° |
| 2026-05-06 12:20 | 55.96851 | 37.41516 | 648 ft | 4 kts | 65° |
| 2026-05-06 12:20 | 55.96846 | 37.41491 | 648 ft | 1 kts | 75° |
| 2026-05-06 12:20 | 55.96845 | 37.41488 | 648 ft | 0 kts | 75° |
| 2026-05-06 12:26 | 55.96846 | 37.41490 | 645 ft | 0 kts | 72° |
| 2026-05-06 12:26 | 55.96851 | 37.41495 | 645 ft | 2 kts | 46° |
| 2026-05-06 12:26 | 55.96858 | 37.41494 | 645 ft | 1 kts | 10° |
| 2026-05-06 12:26 | 55.96879 | 37.41481 | 645 ft | 7 kts | 343° |
| 2026-05-06 12:27 | 55.96913 | 37.41474 | 645 ft | 1 kts | 10° |
| 2026-05-06 12:27 | 55.96915 | 37.41479 | 645 ft | 1 kts | 28° |
| 2026-05-06 12:27 | 55.96922 | 37.41500 | 645 ft | 4 kts | 56° |
| 2026-05-06 12:27 | 55.96942 | 37.41581 | 645 ft | 10 kts | 69° |
| 2026-05-06 12:28 | 55.96968 | 37.41743 | 645 ft | 17 kts | 75° |
| 2026-05-06 12:28 | 55.97002 | 37.41980 | 645 ft | 23 kts | 75° |
| 2026-05-06 12:28 | 55.97046 | 37.42268 | 645 ft | 24 kts | 74° |
| 2026-05-06 12:28 | 55.97090 | 37.42555 | 645 ft | 24 kts | 75° |
| 2026-05-06 12:29 | 55.97134 | 37.42843 | 645 ft | 24 kts | 75° |
| 2026-05-06 12:29 | 55.97174 | 37.43130 | 646 ft | 24 kts | 75° |
| 2026-05-06 12:29 | 55.97216 | 37.43417 | 646 ft | 24 kts | 75° |
| 2026-05-06 12:29 | 55.97260 | 37.43701 | 645 ft | 24 kts | 75° |
| 2026-05-06 12:30 | 55.97299 | 37.43979 | 644 ft | 23 kts | 76° |
| 2026-05-06 12:30 | 55.97340 | 37.44243 | 645 ft | 17 kts | 73° |
| 2026-05-06 12:30 | 55.97368 | 37.44364 | 646 ft | 9 kts | 53° |
| 2026-05-06 12:30 | 55.97422 | 37.44412 | 645 ft | 9 kts | 11° |
| 2026-05-06 12:31 | 55.97440 | 37.44414 | 645 ft | 0 kts | 2° |
| 2026-05-06 12:31 | 55.97442 | 37.44413 | 645 ft | 1 kts | 0° |
| 2026-05-06 12:31 | 55.97450 | 37.44412 | 645 ft | 3 kts | 357° |
| 2026-05-06 12:31 | 55.97480 | 37.44405 | 645 ft | 6 kts | 350° |
| 2026-05-06 12:32 | 55.97532 | 37.44377 | 645 ft | 9 kts | 339° |
| 2026-05-06 12:32 | 55.97560 | 37.44305 | 645 ft | 6 kts | 277° |
| 2026-05-06 12:32 | 55.97553 | 37.44239 | 645 ft | 5 kts | 255° |
| 2026-05-06 12:32 | 55.97543 | 37.44171 | 645 ft | 13 kts | 255° |
| 2026-05-06 12:33 | 55.97452 | 37.43561 | 644 ft | 92 kts | 255° |
| 2026-05-06 12:33 | 55.97219 | 37.41992 | 644 ft | 167 kts | 255° |
| 2026-05-06 12:33 | 55.96875 | 37.39802 | 1254 ft | 178 kts | 249° |
| 2026-05-06 12:33 | 55.96556 | 37.37696 | 2030 ft | 188 kts | 257° |
| 2026-05-06 12:34 | 55.96232 | 37.35370 | 2713 ft | 196 kts | 258° |
| 2026-05-06 12:34 | 55.95873 | 37.32988 | 3471 ft | 202 kts | 257° |
| 2026-05-06 12:34 | 55.95498 | 37.30492 | 4201 ft | 212 kts | 257° |
| 2026-05-06 12:34 | 55.95102 | 37.27855 | 4894 ft | 227 kts | 257° |
| 2026-05-06 12:35 | 55.94682 | 37.25069 | 5565 ft | 242 kts | 257° |
| 2026-05-06 12:35 | 55.94236 | 37.22112 | 6431 ft | 247 kts | 257° |
| 2026-05-06 12:35 | 55.93792 | 37.19176 | 7382 ft | 248 kts | 257° |
| 2026-05-06 12:35 | 55.93339 | 37.16182 | 8287 ft | 251 kts | 256° |
| 2026-05-06 12:36 | 55.92879 | 37.13151 | 9192 ft | 254 kts | 256° |
| 2026-05-06 12:36 | 55.92414 | 37.10088 | 10069 ft | 256 kts | 256° |
| 2026-05-06 12:36 | 55.91948 | 37.06993 | 10857 ft | 260 kts | 258° |
| 2026-05-06 12:36 | 55.91867 | 37.03767 | 11618 ft | 264 kts | 276° |
| 2026-05-06 12:37 | 55.92365 | 37.00635 | 12397 ft | 271 kts | 293° |
| 2026-05-06 12:37 | 55.93449 | 36.97848 | 13175 ft | 281 kts | 311° |
| 2026-05-06 12:37 | 55.95020 | 36.95671 | 13931 ft | 288 kts | 320° |
| 2026-05-06 12:37 | 55.96711 | 36.93654 | 14571 ft | 298 kts | 328° |
| 2026-05-06 12:38 | 55.98741 | 36.92545 | 14857 ft | 311 kts | 348° |
| 2026-05-06 12:38 | 56.00901 | 36.92758 | 14887 ft | 322 kts | 9° |
| 2026-05-06 12:38 | 56.02977 | 36.94391 | 14888 ft | 330 kts | 28° |
| 2026-05-06 12:38 | 56.04915 | 36.96627 | 14881 ft | 331 kts | 29° |
| 2026-05-06 12:39 | 56.06830 | 36.98917 | 14879 ft | 332 kts | 29° |
| 2026-05-06 12:39 | 56.08759 | 37.01192 | 14883 ft | 331 kts | 28° |
| 2026-05-06 12:39 | 56.10627 | 37.03508 | 14880 ft | 333 kts | 38° |
| 2026-05-06 12:39 | 56.12041 | 37.06867 | 14889 ft | 346 kts | 63° |
| 2026-05-06 12:40 | 56.12820 | 37.11132 | 14893 ft | 368 kts | 73° |
| 2026-05-06 12:40 | 56.13454 | 37.15577 | 14891 ft | 366 kts | 75° |
| 2026-05-06 12:40 | 56.14052 | 37.20050 | 14883 ft | 369 kts | 75° |
| 2026-05-06 12:40 | 56.14647 | 37.24463 | 14888 ft | 368 kts | 79° |
| 2026-05-06 12:41 | 56.14655 | 37.29029 | 14891 ft | 369 kts | 103° |
| 2026-05-06 12:41 | 56.13758 | 37.33276 | 14909 ft | 362 kts | 125° |
| 2026-05-06 12:41 | 56.12116 | 37.36616 | 15148 ft | 355 kts | 147° |
| 2026-05-06 12:41 | 56.10019 | 37.38800 | 15829 ft | 351 kts | 158° |
| 2026-05-06 12:42 | 56.07806 | 37.40725 | 16553 ft | 355 kts | 159° |
| 2026-05-06 12:42 | 56.05548 | 37.42590 | 17264 ft | 358 kts | 160° |
| 2026-05-06 12:42 | 56.03295 | 37.44448 | 17948 ft | 362 kts | 159° |
| 2026-05-06 12:42 | 56.01004 | 37.46376 | 18565 ft | 365 kts | 159° |
| 2026-05-06 12:43 | 55.98697 | 37.48322 | 19140 ft | 369 kts | 159° |
| 2026-05-06 12:43 | 55.96429 | 37.50562 | 19664 ft | 378 kts | 145° |
| 2026-05-06 12:43 | 55.94587 | 37.54008 | 19870 ft | 389 kts | 126° |
| 2026-05-06 12:43 | 55.93448 | 37.58380 | 19964 ft | 392 kts | 105° |
| 2026-05-06 12:44 | 55.92860 | 37.63150 | 20437 ft | 394 kts | 103° |
| 2026-05-06 12:44 | 55.92337 | 37.67926 | 20990 ft | 398 kts | 101° |
| 2026-05-06 12:44 | 55.91798 | 37.72786 | 21598 ft | 399 kts | 107° |
| 2026-05-06 12:44 | 55.90693 | 37.77318 | 22161 ft | 398 kts | 120° |
| 2026-05-06 12:45 | 55.89372 | 37.81615 | 22693 ft | 401 kts | 121° |
| 2026-05-06 12:45 | 55.87989 | 37.85944 | 23189 ft | 404 kts | 121° |
| 2026-05-06 12:45 | 55.85075 | 37.94593 | 24060 ft | 406 kts | 134° |
| 2026-05-06 12:46 | 55.82979 | 37.97934 | 24474 ft | 403 kts | 150° |
| 2026-05-06 12:46 | 55.80483 | 38.00115 | 24875 ft | 398 kts | 167° |
| 2026-05-06 12:46 | 55.77816 | 38.01009 | 25268 ft | 393 kts | 182° |
| 2026-05-06 12:46 | 55.75116 | 38.00622 | 25647 ft | 388 kts | 198° |
| 2026-05-06 12:47 | 55.72594 | 37.99013 | 26048 ft | 383 kts | 212° |
| 2026-05-06 12:47 | 55.70420 | 37.96332 | 26445 ft | 379 kts | 227° |
| 2026-05-06 12:47 | 55.68548 | 37.93103 | 26808 ft | 381 kts | 228° |
| 2026-05-06 12:47 | 55.66662 | 37.89779 | 27182 ft | 384 kts | 229° |
| 2026-05-06 12:48 | 55.64667 | 37.86590 | 27576 ft | 391 kts | 219° |
| 2026-05-06 12:48 | 55.62334 | 37.84025 | 27750 ft | 401 kts | 214° |
| 2026-05-06 12:48 | 55.59903 | 37.81491 | 27888 ft | 410 kts | 214° |
| 2026-05-06 12:48 | 55.57391 | 37.78903 | 27969 ft | 421 kts | 214° |
| 2026-05-06 12:49 | 55.55698 | 37.77157 | 27986 ft | 428 kts | 214° |
| 2026-05-06 12:49 | 55.52226 | 37.73620 | 28114 ft | 441 kts | 210° |
| 2026-05-06 12:49 | 55.50325 | 37.72219 | 28229 ft | 449 kts | 202° |
| 2026-05-06 12:49 | 55.47243 | 37.70928 | 28429 ft | 460 kts | 192° |
| 2026-05-06 12:50 | 55.44048 | 37.70118 | 28619 ft | 466 kts | 191° |
| 2026-05-06 12:50 | 55.40811 | 37.69341 | 28847 ft | 471 kts | 191° |
| 2026-05-06 12:50 | 55.37550 | 37.68571 | 29090 ft | 475 kts | 191° |
| 2026-05-06 12:50 | 55.34298 | 37.67778 | 29329 ft | 479 kts | 191° |
| 2026-05-06 12:51 | 55.30981 | 37.66963 | 29593 ft | 483 kts | 191° |
| 2026-05-06 12:51 | 55.27607 | 37.66391 | 29880 ft | 489 kts | 182° |
| 2026-05-06 12:51 | 55.24180 | 37.66873 | 30140 ft | 495 kts | 175° |
| 2026-05-06 12:51 | 55.20830 | 37.67660 | 30363 ft | 499 kts | 175° |
| 2026-05-06 12:52 | 55.17374 | 37.68504 | 30616 ft | 502 kts | 175° |
| 2026-05-06 12:52 | 55.13890 | 37.69344 | 30857 ft | 505 kts | 175° |
| 2026-05-06 12:52 | 55.10378 | 37.70167 | 31093 ft | 508 kts | 175° |
| 2026-05-06 12:52 | 55.06896 | 37.70983 | 31382 ft | 510 kts | 174° |
| 2026-05-06 12:53 | 55.03389 | 37.71818 | 31778 ft | 510 kts | 174° |
| 2026-05-06 12:53 | 54.99863 | 37.72689 | 32161 ft | 510 kts | 171° |
| 2026-05-06 12:53 | 54.96404 | 37.74064 | 32588 ft | 509 kts | 168° |
| 2026-05-06 12:53 | 54.92956 | 37.75514 | 32987 ft | 509 kts | 168° |
| 2026-05-06 12:54 | 54.89512 | 37.76947 | 33424 ft | 508 kts | 171° |
| 2026-05-06 12:54 | 54.86056 | 37.77844 | 33833 ft | 506 kts | 174° |
| 2026-05-06 12:54 | 54.82555 | 37.78639 | 34172 ft | 506 kts | 174° |
| 2026-05-06 12:54 | 54.79053 | 37.79436 | 34523 ft | 506 kts | 174° |
| 2026-05-06 12:55 | 54.75565 | 37.80256 | 34873 ft | 505 kts | 174° |
| 2026-05-06 12:55 | 54.72074 | 37.81076 | 35230 ft | 505 kts | 174° |
| 2026-05-06 12:55 | 54.68632 | 37.81868 | 35607 ft | 504 kts | 174° |
| 2026-05-06 12:55 | 54.65147 | 37.82611 | 35968 ft | 501 kts | 179° |
| 2026-05-06 12:56 | 54.61660 | 37.82862 | 36349 ft | 499 kts | 180° |
| 2026-05-06 12:56 | 54.58227 | 37.83073 | 36686 ft | 498 kts | 180° |
| 2026-05-06 12:56 | 54.54756 | 37.83284 | 36855 ft | 498 kts | 180° |
| 2026-05-06 12:57 | 54.47908 | 37.83936 | 36873 ft | 493 kts | 171° |
| 2026-05-06 12:57 | 54.44574 | 37.85422 | 36890 ft | 498 kts | 160° |
| 2026-05-06 12:57 | 54.41443 | 37.87947 | 36879 ft | 498 kts | 153° |
| 2026-05-06 12:58 | 54.35377 | 37.93599 | 36865 ft | 498 kts | 152° |
| 2026-05-06 12:58 | 54.29284 | 37.99312 | 36870 ft | 497 kts | 153° |
| 2026-05-06 12:59 | 54.23224 | 38.04930 | 36863 ft | 497 kts | 153° |
| 2026-05-06 12:59 | 54.17146 | 38.10579 | 36863 ft | 496 kts | 153° |
| 2026-05-06 13:00 | 54.11088 | 38.16167 | 36854 ft | 497 kts | 153° |
| 2026-05-06 13:00 | 54.04986 | 38.21793 | 36855 ft | 498 kts | 153° |
| 2026-05-06 13:01 | 53.98881 | 38.27393 | 36854 ft | 497 kts | 153° |
| 2026-05-06 13:01 | 53.92821 | 38.32938 | 36855 ft | 497 kts | 153° |
| 2026-05-06 13:02 | 53.86722 | 38.38498 | 36848 ft | 497 kts | 153° |
| 2026-05-06 13:02 | 53.80650 | 38.44017 | 36856 ft | 493 kts | 153° |
| 2026-05-06 13:03 | 53.74626 | 38.49610 | 36863 ft | 495 kts | 146° |
| 2026-05-06 13:03 | 53.69239 | 38.56862 | 36872 ft | 496 kts | 141° |
| 2026-05-06 13:04 | 53.63939 | 38.64280 | 36872 ft | 497 kts | 142° |
| 2026-05-06 13:04 | 53.58621 | 38.71601 | 36878 ft | 496 kts | 141° |
| 2026-05-06 13:05 | 53.53287 | 38.78978 | 36881 ft | 494 kts | 141° |
| 2026-05-06 13:05 | 53.47976 | 38.86266 | 36877 ft | 496 kts | 142° |
| 2026-05-06 13:06 | 53.42340 | 38.92898 | 36892 ft | 493 kts | 158° |
| 2026-05-06 13:06 | 53.36013 | 38.97382 | 36878 ft | 491 kts | 158° |
| 2026-05-06 13:07 | 53.29720 | 39.01755 | 36889 ft | 492 kts | 158° |
| 2026-05-06 13:07 | 53.23396 | 39.06166 | 36885 ft | 495 kts | 159° |
| 2026-05-06 13:08 | 53.17088 | 39.10537 | 36886 ft | 490 kts | 158° |
| 2026-05-06 13:08 | 53.10736 | 39.14928 | 36899 ft | 494 kts | 159° |
| 2026-05-06 13:09 | 53.04403 | 39.19293 | 36890 ft | 491 kts | 158° |
| 2026-05-06 13:09 | 52.98132 | 39.23601 | 36894 ft | 491 kts | 158° |
| 2026-05-06 13:10 | 52.91792 | 39.27941 | 36907 ft | 492 kts | 158° |
| 2026-05-06 13:10 | 52.85475 | 39.32255 | 36897 ft | 492 kts | 158° |
| 2026-05-06 13:11 | 52.79136 | 39.36567 | 36898 ft | 492 kts | 158° |
| 2026-05-06 13:11 | 52.72828 | 39.40847 | 36885 ft | 490 kts | 158° |
| 2026-05-06 13:12 | 52.66498 | 39.45126 | 36885 ft | 492 kts | 158° |
| 2026-05-06 13:12 | 52.60177 | 39.49387 | 36890 ft | 493 kts | 158° |
| 2026-05-06 13:13 | 52.53837 | 39.53648 | 36885 ft | 490 kts | 158° |
| 2026-05-06 13:13 | 52.47496 | 39.57895 | 36895 ft | 491 kts | 158° |
| 2026-05-06 13:14 | 52.41324 | 39.62519 | 36902 ft | 491 kts | 153° |
| 2026-05-06 13:14 | 52.35211 | 39.67539 | 36910 ft | 493 kts | 153° |
| 2026-05-06 13:15 | 52.29089 | 39.72565 | 36906 ft | 491 kts | 153° |
| 2026-05-06 13:15 | 52.22984 | 39.77557 | 36910 ft | 490 kts | 153° |
| 2026-05-06 13:16 | 52.16919 | 39.82501 | 36914 ft | 490 kts | 153° |
| 2026-05-06 13:16 | 52.10810 | 39.87467 | 36908 ft | 490 kts | 153° |
| 2026-05-06 13:17 | 52.04690 | 39.92425 | 36922 ft | 491 kts | 153° |
| 2026-05-06 13:17 | 51.98602 | 39.97347 | 36917 ft | 490 kts | 153° |
| 2026-05-06 13:18 | 51.92471 | 40.02331 | 36913 ft | 491 kts | 153° |
| 2026-05-06 13:18 | 51.86395 | 40.07236 | 36912 ft | 490 kts | 153° |
| 2026-05-06 13:19 | 51.80277 | 40.12168 | 36915 ft | 489 kts | 153° |
| 2026-05-06 13:19 | 51.74209 | 40.17039 | 36917 ft | 490 kts | 153° |
| 2026-05-06 13:20 | 51.68302 | 40.22576 | 36913 ft | 490 kts | 146° |
| 2026-05-06 13:20 | 51.62602 | 40.28493 | 36917 ft | 490 kts | 147° |
| 2026-05-06 13:21 | 51.56848 | 40.34396 | 36921 ft | 489 kts | 147° |
| 2026-05-06 13:21 | 51.51143 | 40.40263 | 36927 ft | 490 kts | 147° |
| 2026-05-06 13:22 | 51.45380 | 40.46157 | 36923 ft | 490 kts | 147° |
| 2026-05-06 13:22 | 51.39610 | 40.52040 | 36925 ft | 490 kts | 147° |
| 2026-05-06 13:23 | 51.33856 | 40.57835 | 36926 ft | 491 kts | 151° |
| 2026-05-06 13:23 | 51.30706 | 40.59981 | 36940 ft | 493 kts | 163° |
| 2026-05-06 13:23 | 51.27340 | 40.61123 | 36959 ft | 493 kts | 171° |
| 2026-05-06 13:24 | 51.20589 | 40.62772 | 36934 ft | 492 kts | 171° |
| 2026-05-06 13:24 | 51.13766 | 40.64398 | 36933 ft | 494 kts | 171° |
| 2026-05-06 13:25 | 51.07001 | 40.66026 | 36926 ft | 493 kts | 171° |
| 2026-05-06 13:25 | 51.00193 | 40.67653 | 36936 ft | 493 kts | 171° |
| 2026-05-06 13:26 | 50.93454 | 40.69256 | 36937 ft | 492 kts | 171° |
| 2026-05-06 13:26 | 50.86657 | 40.70871 | 36927 ft | 492 kts | 171° |
| 2026-05-06 13:27 | 50.79915 | 40.72468 | 36930 ft | 492 kts | 171° |
| 2026-05-06 13:27 | 50.73149 | 40.74065 | 36944 ft | 492 kts | 171° |
| 2026-05-06 13:28 | 50.66350 | 40.75664 | 36941 ft | 495 kts | 170° |
| 2026-05-06 13:28 | 50.59735 | 40.78204 | 36951 ft | 492 kts | 153° |
| 2026-05-06 13:29 | 50.53823 | 40.83636 | 36945 ft | 491 kts | 147° |
| 2026-05-06 13:29 | 50.48024 | 40.89339 | 36944 ft | 491 kts | 146° |
| 2026-05-06 13:30 | 50.42254 | 40.94973 | 36939 ft | 490 kts | 147° |
| 2026-05-06 13:30 | 50.36448 | 41.00635 | 36937 ft | 490 kts | 147° |
| 2026-05-06 13:31 | 50.30671 | 41.06248 | 36941 ft | 490 kts | 147° |
| 2026-05-06 13:31 | 50.24872 | 41.11868 | 36943 ft | 491 kts | 147° |
| 2026-05-06 13:32 | 50.19049 | 41.17495 | 36940 ft | 491 kts | 147° |
| 2026-05-06 13:32 | 50.13259 | 41.23073 | 36939 ft | 491 kts | 147° |
| 2026-05-06 13:33 | 50.07427 | 41.28676 | 36936 ft | 491 kts | 147° |
| 2026-05-06 13:33 | 50.01622 | 41.34236 | 36942 ft | 491 kts | 147° |
| 2026-05-06 13:34 | 49.95498 | 41.38712 | 36958 ft | 494 kts | 165° |
| 2026-05-06 13:34 | 49.88711 | 41.40647 | 36939 ft | 495 kts | 169° |
| 2026-05-06 13:35 | 49.81916 | 41.42400 | 36945 ft | 494 kts | 169° |
| 2026-05-06 13:35 | 49.75134 | 41.44196 | 36949 ft | 495 kts | 169° |
| 2026-05-06 13:36 | 49.68366 | 41.45954 | 36947 ft | 495 kts | 169° |
| 2026-05-06 13:36 | 49.61551 | 41.47735 | 36947 ft | 495 kts | 169° |
| 2026-05-06 13:37 | 49.54745 | 41.49501 | 36950 ft | 495 kts | 169° |
| 2026-05-06 13:37 | 49.47982 | 41.51255 | 36947 ft | 495 kts | 169° |
| 2026-05-06 13:38 | 49.41169 | 41.53014 | 36948 ft | 495 kts | 169° |
| 2026-05-06 13:38 | 49.34390 | 41.54761 | 36948 ft | 495 kts | 169° |
| 2026-05-06 13:39 | 49.27584 | 41.56509 | 36948 ft | 495 kts | 169° |
| 2026-05-06 13:39 | 49.20791 | 41.58250 | 36947 ft | 494 kts | 169° |
| 2026-05-06 13:40 | 49.14039 | 41.59975 | 36948 ft | 492 kts | 169° |
| 2026-05-06 13:40 | 49.07239 | 41.61708 | 36954 ft | 495 kts | 169° |
| 2026-05-06 13:41 | 49.00480 | 41.63424 | 36949 ft | 494 kts | 169° |
| 2026-05-06 13:41 | 48.93679 | 41.65148 | 36953 ft | 495 kts | 169° |
| 2026-05-06 13:42 | 48.86879 | 41.66867 | 36950 ft | 494 kts | 169° |
| 2026-05-06 13:42 | 48.80151 | 41.68561 | 36947 ft | 493 kts | 169° |
| 2026-05-06 13:43 | 48.73361 | 41.70268 | 36953 ft | 494 kts | 169° |
| 2026-05-06 13:43 | 48.67723 | 41.71681 | 36952 ft | 494 kts | 169° |
| 2026-05-06 13:44 | 48.60930 | 41.73380 | 36958 ft | 494 kts | 169° |
| 2026-05-06 13:44 | 48.54200 | 41.75058 | 36952 ft | 491 kts | 169° |
| 2026-05-06 13:45 | 48.47444 | 41.76739 | 36955 ft | 492 kts | 169° |
| 2026-05-06 13:45 | 48.37310 | 41.79250 | 36956 ft | 493 kts | 169° |
| 2026-05-06 13:46 | 48.30604 | 41.81321 | 36947 ft | 492 kts | 165° |
| 2026-05-06 13:46 | 48.23933 | 41.83700 | 36949 ft | 492 kts | 165° |
| 2026-05-06 13:47 | 48.17316 | 41.86078 | 36954 ft | 491 kts | 165° |
| 2026-05-06 13:47 | 48.10658 | 41.88454 | 36956 ft | 493 kts | 165° |
| 2026-05-06 13:48 | 48.03972 | 41.90838 | 36955 ft | 492 kts | 165° |
| 2026-05-06 13:48 | 47.97301 | 41.93208 | 36953 ft | 491 kts | 165° |
| 2026-05-06 13:49 | 47.90678 | 41.95556 | 36948 ft | 491 kts | 165° |
| 2026-05-06 13:49 | 47.84018 | 41.97910 | 36948 ft | 491 kts | 165° |
| 2026-05-06 13:50 | 47.77404 | 42.00242 | 36949 ft | 491 kts | 165° |
| 2026-05-06 13:50 | 47.70750 | 42.02581 | 36954 ft | 490 kts | 165° |
| 2026-05-06 13:51 | 47.64120 | 42.04906 | 36953 ft | 491 kts | 165° |
| 2026-05-06 13:51 | 47.57485 | 42.07226 | 36958 ft | 492 kts | 165° |
| 2026-05-06 13:52 | 47.50820 | 42.09551 | 36951 ft | 492 kts | 165° |
| 2026-05-06 13:52 | 47.44128 | 42.11879 | 36963 ft | 492 kts | 165° |
| 2026-05-06 13:53 | 47.37491 | 42.14181 | 36957 ft | 492 kts | 165° |
| 2026-05-06 13:53 | 47.30822 | 42.16489 | 36955 ft | 492 kts | 165° |
| 2026-05-06 13:54 | 47.24143 | 42.18795 | 36956 ft | 492 kts | 165° |
| 2026-05-06 13:54 | 47.17447 | 42.21099 | 36958 ft | 493 kts | 165° |
| 2026-05-06 13:55 | 47.10787 | 42.23387 | 36961 ft | 494 kts | 166° |
| 2026-05-06 13:55 | 47.04112 | 42.25673 | 36962 ft | 494 kts | 166° |
| 2026-05-06 13:56 | 46.97378 | 42.27519 | 36963 ft | 494 kts | 169° |
| 2026-05-06 13:56 | 46.90587 | 42.29200 | 36962 ft | 494 kts | 169° |
| 2026-05-06 13:57 | 46.83795 | 42.30828 | 36984 ft | 494 kts | 169° |
| 2026-05-06 13:57 | 46.80386 | 42.31655 | 37294 ft | 494 kts | 169° |
| 2026-05-06 13:57 | 46.76995 | 42.32479 | 37650 ft | 493 kts | 169° |
| 2026-05-06 13:58 | 46.73638 | 42.33285 | 37998 ft | 493 kts | 169° |
| 2026-05-06 13:58 | 46.70249 | 42.34103 | 38335 ft | 493 kts | 168° |
| 2026-05-06 13:58 | 46.66903 | 42.35190 | 38666 ft | 492 kts | 166° |
| 2026-05-06 13:58 | 46.63586 | 42.36254 | 38916 ft | 492 kts | 167° |
| 2026-05-06 13:59 | 46.60232 | 42.37306 | 39169 ft | 493 kts | 166° |
| 2026-05-06 13:59 | 46.56862 | 42.38395 | 39424 ft | 493 kts | 166° |
| 2026-05-06 13:59 | 46.53525 | 42.39488 | 39672 ft | 493 kts | 166° |
| 2026-05-06 13:59 | 46.50160 | 42.40575 | 39921 ft | 493 kts | 167° |
| 2026-05-06 14:00 | 46.46842 | 42.41632 | 40175 ft | 493 kts | 167° |
| 2026-05-06 14:00 | 46.43487 | 42.42706 | 40431 ft | 493 kts | 167° |
| 2026-05-06 14:00 | 46.40130 | 42.43788 | 40675 ft | 493 kts | 167° |
| 2026-05-06 14:00 | 46.36776 | 42.44865 | 40916 ft | 493 kts | 167° |
| 2026-05-06 14:01 | 46.30160 | 42.46977 | 40964 ft | 481 kts | 167° |
| 2026-05-06 14:01 | 46.23607 | 42.49070 | 40968 ft | 483 kts | 167° |
| 2026-05-06 14:02 | 46.17035 | 42.51160 | 40974 ft | 482 kts | 168° |
| 2026-05-06 14:02 | 46.10485 | 42.53240 | 40971 ft | 482 kts | 168° |
| 2026-05-06 14:03 | 46.03892 | 42.55250 | 40975 ft | 483 kts | 169° |
| 2026-05-06 14:03 | 45.97329 | 42.57166 | 40980 ft | 483 kts | 168° |
| 2026-05-06 14:04 | 45.90781 | 42.59131 | 40980 ft | 482 kts | 169° |
| 2026-05-06 14:04 | 45.84186 | 42.61067 | 40984 ft | 482 kts | 168° |
| 2026-05-06 14:05 | 45.77598 | 42.63020 | 40993 ft | 483 kts | 168° |
| 2026-05-06 14:05 | 45.71034 | 42.64947 | 41002 ft | 483 kts | 168° |
| 2026-05-06 14:06 | 45.64425 | 42.66891 | 41002 ft | 484 kts | 168° |
| 2026-05-06 14:06 | 45.57853 | 42.68815 | 41012 ft | 484 kts | 168° |
| 2026-05-06 14:07 | 45.51226 | 42.70750 | 41011 ft | 486 kts | 168° |
| 2026-05-06 14:07 | 45.44645 | 42.72746 | 41019 ft | 485 kts | 165° |
| 2026-05-06 14:08 | 45.38127 | 42.75003 | 41023 ft | 482 kts | 167° |
| 2026-05-06 14:08 | 45.31607 | 42.77263 | 41025 ft | 482 kts | 166° |
| 2026-05-06 14:09 | 45.25077 | 42.79532 | 41024 ft | 481 kts | 167° |
| 2026-05-06 14:09 | 45.18595 | 42.81762 | 41025 ft | 480 kts | 167° |
| 2026-05-06 14:10 | 45.12103 | 42.84006 | 41025 ft | 479 kts | 167° |
| 2026-05-06 14:10 | 45.05621 | 42.86230 | 41026 ft | 480 kts | 167° |
| 2026-05-06 14:11 | 44.99161 | 42.88453 | 41026 ft | 480 kts | 167° |
| 2026-05-06 14:11 | 44.92635 | 42.90697 | 41039 ft | 486 kts | 167° |
| 2026-05-06 14:12 | 44.86062 | 42.92949 | 41037 ft | 484 kts | 167° |
| 2026-05-06 14:12 | 44.79553 | 42.95176 | 41024 ft | 483 kts | 167° |
| 2026-05-06 14:13 | 44.73015 | 42.97406 | 41021 ft | 482 kts | 167° |
| 2026-05-06 14:13 | 44.66586 | 42.99604 | 41021 ft | 480 kts | 167° |
| 2026-05-06 14:14 | 44.60956 | 43.01518 | 41022 ft | 480 kts | 169° |
| 2026-05-06 14:14 | 44.54301 | 43.02426 | 41028 ft | 484 kts | 176° |
| 2026-05-06 14:15 | 44.47634 | 43.03057 | 41025 ft | 478 kts | 177° |
| 2026-05-06 14:15 | 44.40938 | 43.03716 | 41035 ft | 482 kts | 176° |
| 2026-05-06 14:16 | 44.34229 | 43.04363 | 41028 ft | 481 kts | 177° |
| 2026-05-06 14:16 | 44.27562 | 43.05008 | 41045 ft | 482 kts | 177° |
| 2026-05-06 14:17 | 44.20915 | 43.05922 | 41039 ft | 482 kts | 174° |
| 2026-05-06 14:17 | 44.14270 | 43.07064 | 41043 ft | 482 kts | 174° |
| 2026-05-06 14:18 | 44.07602 | 43.08262 | 41044 ft | 481 kts | 174° |
| 2026-05-06 14:18 | 44.00975 | 43.09426 | 41031 ft | 481 kts | 174° |
| 2026-05-06 14:19 | 43.94367 | 43.10593 | 41029 ft | 481 kts | 174° |
| 2026-05-06 14:19 | 43.87708 | 43.11764 | 41036 ft | 481 kts | 174° |
| 2026-05-06 14:20 | 43.81070 | 43.12928 | 41025 ft | 481 kts | 174° |
| 2026-05-06 14:20 | 43.74442 | 43.14090 | 41032 ft | 481 kts | 174° |
| 2026-05-06 14:21 | 43.67825 | 43.15249 | 41039 ft | 481 kts | 174° |
| 2026-05-06 14:21 | 43.61186 | 43.16417 | 41051 ft | 481 kts | 174° |
| 2026-05-06 14:22 | 43.54512 | 43.17584 | 41044 ft | 481 kts | 174° |
| 2026-05-06 14:22 | 43.47899 | 43.18741 | 41051 ft | 482 kts | 174° |
| 2026-05-06 14:23 | 43.41265 | 43.19896 | 41048 ft | 481 kts | 174° |
| 2026-05-06 14:23 | 43.34576 | 43.21064 | 41048 ft | 481 kts | 174° |
| 2026-05-06 14:24 | 43.27945 | 43.22228 | 41057 ft | 481 kts | 174° |
| 2026-05-06 14:24 | 43.21314 | 43.23383 | 41050 ft | 481 kts | 174° |
| 2026-05-06 14:25 | 43.14688 | 43.24539 | 41049 ft | 481 kts | 174° |
| 2026-05-06 14:25 | 43.08032 | 43.25694 | 41050 ft | 483 kts | 174° |
| 2026-05-06 14:26 | 43.01420 | 43.26842 | 41053 ft | 481 kts | 174° |
| 2026-05-06 14:26 | 42.94754 | 43.28001 | 41067 ft | 481 kts | 172° |
| 2026-05-06 14:27 | 42.88441 | 43.30947 | 41082 ft | 487 kts | 154° |
| 2026-05-06 14:27 | 42.82443 | 43.35243 | 41078 ft | 486 kts | 154° |
| 2026-05-06 14:28 | 42.76479 | 43.39534 | 41086 ft | 485 kts | 154° |
| 2026-05-06 14:28 | 42.70488 | 43.43807 | 41094 ft | 486 kts | 154° |
| 2026-05-06 14:29 | 42.64521 | 43.48076 | 41087 ft | 486 kts | 155° |
| 2026-05-06 14:29 | 42.58544 | 43.52327 | 41085 ft | 485 kts | 155° |
| 2026-05-06 14:30 | 42.52561 | 43.56583 | 41097 ft | 486 kts | 155° |
| 2026-05-06 14:30 | 42.46553 | 43.60841 | 41084 ft | 486 kts | 155° |
| 2026-05-06 14:31 | 42.40584 | 43.65066 | 41103 ft | 485 kts | 155° |
| 2026-05-06 14:31 | 42.34579 | 43.69305 | 41104 ft | 484 kts | 155° |
| 2026-05-06 14:32 | 42.28604 | 43.73515 | 41091 ft | 486 kts | 155° |
| 2026-05-06 14:32 | 42.22613 | 43.77728 | 41099 ft | 486 kts | 155° |
| 2026-05-06 14:33 | 42.17621 | 43.81230 | 41100 ft | 487 kts | 155° |
| 2026-05-06 14:33 | 42.10604 | 43.86144 | 41085 ft | 486 kts | 155° |
| 2026-05-06 14:34 | 42.05638 | 43.89613 | 41096 ft | 485 kts | 156° |
| 2026-05-06 14:34 | 41.99655 | 43.93784 | 41086 ft | 485 kts | 156° |
| 2026-05-06 14:35 | 41.93622 | 43.97982 | 41090 ft | 486 kts | 156° |
| 2026-05-06 14:35 | 41.87625 | 44.02146 | 41087 ft | 485 kts | 156° |
| 2026-05-06 14:36 | 41.81659 | 44.06280 | 41072 ft | 484 kts | 156° |
| 2026-05-06 14:36 | 41.75671 | 44.10419 | 41064 ft | 484 kts | 156° |
| 2026-05-06 14:37 | 41.69694 | 44.14543 | 41077 ft | 485 kts | 156° |
| 2026-05-06 14:37 | 41.63689 | 44.18677 | 41074 ft | 486 kts | 156° |
| 2026-05-06 14:38 | 41.57680 | 44.22805 | 41080 ft | 485 kts | 156° |
| 2026-05-06 14:38 | 41.51745 | 44.27070 | 41068 ft | 486 kts | 156° |
| 2026-05-06 14:39 | 41.45772 | 44.31294 | 41066 ft | 486 kts | 155° |
| 2026-05-06 14:39 | 41.39803 | 44.35585 | 41070 ft | 486 kts | 156° |
| 2026-05-06 14:40 | 41.33848 | 44.39806 | 41072 ft | 486 kts | 156° |
| 2026-05-06 14:40 | 41.27886 | 44.44054 | 41067 ft | 486 kts | 156° |
| 2026-05-06 14:41 | 41.21926 | 44.48273 | 41074 ft | 486 kts | 156° |
| 2026-05-06 14:41 | 41.15963 | 44.52478 | 41064 ft | 486 kts | 157° |
| 2026-05-06 14:42 | 41.09948 | 44.56623 | 41065 ft | 487 kts | 157° |
| 2026-05-06 14:42 | 41.03946 | 44.60801 | 41046 ft | 486 kts | 157° |
| 2026-05-06 14:43 | 40.97994 | 44.64907 | 41059 ft | 485 kts | 157° |
| 2026-05-06 14:43 | 40.91994 | 44.69052 | 41058 ft | 485 kts | 157° |
| 2026-05-06 14:44 | 40.86018 | 44.73166 | 41044 ft | 485 kts | 157° |
| 2026-05-06 14:45 | 40.77039 | 44.79335 | 41061 ft | 486 kts | 157° |
| 2026-05-06 14:45 | 40.71042 | 44.83444 | 41047 ft | 485 kts | 157° |
| 2026-05-06 14:46 | 40.65006 | 44.87571 | 41048 ft | 486 kts | 157° |
| 2026-05-06 14:46 | 40.59025 | 44.91652 | 41042 ft | 486 kts | 157° |
| 2026-05-06 14:47 | 40.53074 | 44.95896 | 41058 ft | 491 kts | 149° |
| 2026-05-06 14:47 | 40.47615 | 45.01339 | 41047 ft | 492 kts | 147° |
| 2026-05-06 14:48 | 40.42229 | 45.06821 | 41048 ft | 491 kts | 148° |
| 2026-05-06 14:48 | 40.36795 | 45.12291 | 41024 ft | 491 kts | 148° |
| 2026-05-06 14:49 | 40.31419 | 45.17721 | 41019 ft | 490 kts | 148° |
| 2026-05-06 14:49 | 40.25996 | 45.23170 | 41023 ft | 490 kts | 148° |
| 2026-05-06 14:50 | 40.20580 | 45.28612 | 41032 ft | 490 kts | 148° |
| 2026-05-06 14:50 | 40.15197 | 45.34002 | 41011 ft | 489 kts | 148° |
| 2026-05-06 14:51 | 40.09783 | 45.39415 | 41006 ft | 488 kts | 148° |
| 2026-05-06 14:51 | 40.04393 | 45.44793 | 41008 ft | 487 kts | 148° |
| 2026-05-06 14:52 | 39.99024 | 45.50166 | 41012 ft | 489 kts | 146° |
| 2026-05-06 14:52 | 39.93679 | 45.55674 | 41007 ft | 488 kts | 148° |
| 2026-05-06 14:53 | 39.88343 | 45.61150 | 40998 ft | 488 kts | 148° |
| 2026-05-06 14:53 | 39.83052 | 45.66594 | 40994 ft | 488 kts | 148° |
| 2026-05-06 14:54 | 39.77684 | 45.72078 | 40998 ft | 489 kts | 148° |
| 2026-05-06 14:54 | 39.72359 | 45.77530 | 41001 ft | 489 kts | 148° |
| 2026-05-06 14:55 | 39.67004 | 45.82940 | 40988 ft | 484 kts | 153° |
| 2026-05-06 14:55 | 39.61217 | 45.87311 | 40992 ft | 478 kts | 157° |
| 2026-05-06 14:56 | 39.55413 | 45.91510 | 41004 ft | 480 kts | 157° |
| 2026-05-06 14:56 | 39.49637 | 45.95709 | 41002 ft | 479 kts | 157° |
| 2026-05-06 14:57 | 39.43805 | 45.99926 | 40990 ft | 479 kts | 158° |
| 2026-05-06 14:57 | 39.38001 | 46.04120 | 40982 ft | 479 kts | 158° |
| 2026-05-06 14:58 | 39.32197 | 46.08305 | 40993 ft | 478 kts | 158° |
| 2026-05-06 14:58 | 39.26345 | 46.12516 | 41000 ft | 478 kts | 158° |